Flight Track Log - Related Links

Times and Time Zones

All times are in EDT time to prevent confusion due to time zone crossing. See the ASQ5311 flight status page for this flight to view local times or setup timezone preferences in your user account.

Time Position Orientation Groundspeed Altitude Reporting Facility
EDT Latitude Longitude Course Direction KTS MPH feet Rate Location/Type
Thu 12:23:59 AM 40.8136 -73.8903 30° Northeast 177 204 2,400  Level Boston Center
Thu 12:24:59 AM 40.8714 -73.9075 347° North 208 239 5,300 2,750 Climbing Boston Center
Thu 12:25:59 AM 40.9297 -73.8733 24° Northeast 231 266 7,900 2,400 Climbing Boston Center
Thu 12:26:59 AM 40.9886 -73.8139 37° Northeast 263 303 10,100 2,182 Climbing Boston Center
Thu 12:28:00 AM 41.0572 -73.7369 40° Northeast 306 352 12,300 1,884 Climbing Boston Center
Thu 12:29:00 AM 41.1129 -73.5992 30° Northeast  Level FlightAware Approximate
Thu 12:29:00 AM 41.1278 -73.6533 42° Northeast 336 387 13,900  Level Boston Center
Thu 12:30:00 AM 41.2033 -73.5633 42° Northeast 361 415 15,900 1,884 Climbing Boston Center
Thu 12:31:01 AM 41.2800 -73.4703 42° Northeast 369 425 17,700 1,636 Climbing Boston Center
Thu 12:32:01 AM 41.3575 -73.3764 42° Northeast 381 438 19,200 1,350 Climbing Boston Center
Thu 12:33:01 AM 41.4419 -73.2750 42° Northeast 401 461 20,400 1,150 Climbing Boston Center
Thu 12:34:01 AM 41.5275 -73.1706 42° Northeast 410 472 21,500 1,091 Climbing Boston Center
Thu 12:35:02 AM 41.6147 -73.0631 43° Northeast 428 493 22,600 1,091 Climbing Boston Center
Thu 12:36:02 AM 41.7042 -72.9528 43° Northeast 439 505 23,700 1,050 Climbing Boston Center
Thu 12:37:02 AM 41.7947 -72.8403 43° Northeast 441 507 24,700 1,000 Climbing Boston Center
Thu 12:38:02 AM 41.8867 -72.7269 43° Northeast 448 516 25,700 992 Climbing Boston Center
Thu 12:39:03 AM 41.9767 -72.6119 44° Northeast 448 516 26,700 645 Climbing Boston Center
Thu 12:40:03 AM 42.0694 -72.4983 42° Northeast 453 521 27,000 150 Climbing Boston Center
Thu 12:41:03 AM 42.1617 -72.3822 43° Northeast 456 525 27,000  Level Boston Center
Thu 12:42:03 AM 42.2522 -72.2669 43° Northeast 454 522 27,000  Level Boston Center
Thu 12:43:03 AM 42.3453 -72.1497 43° Northeast 457 526 27,000  Level Boston Center
Thu 12:44:04 AM 42.4369 -72.0319 43° Northeast 457 526 27,000  Level Boston Center
Thu 12:45:04 AM 42.5306 -71.9144 43° Northeast 462 532 27,000  Level Boston Center
Thu 12:46:04 AM 42.6225 -71.7939 44° Northeast 462 532 27,000  Level Boston Center
Thu 12:47:04 AM 42.7158 -71.6756 43° Northeast 462 532 27,000  Level Boston Center
Thu 12:48:04 AM 42.8242 -71.5339 44° Northeast 462 532 27,000  Level Boston Center
Thu 12:49:05 AM 42.9164 -71.4144 43° Northeast 460 529 27,000  Level Boston Center
Thu 12:50:05 AM 43.0086 -71.2942 44° Northeast 460 529 27,000  Level Boston Center
Thu 12:51:05 AM 43.1011 -71.1711 44° Northeast 460 529 27,000  Level Boston Center
Thu 12:52:05 AM 43.1956 -71.0475 44° Northeast 462 532 27,000  Level Boston Center
Thu 12:53:06 AM 43.2869 -70.9250 44° Northeast 464 534 27,000  Level Boston Center
Thu 12:54:06 AM 43.3789 -70.8039 44° Northeast 464 534 27,000  Level Boston Center
Thu 12:55:06 AM 43.4747 -70.6753 44° Northeast 465 535 27,000  Level Boston Center
Thu 12:56:06 AM 43.5500 -70.5750 44° Northeast 466 536 27,000  Level Boston Center
Thu 12:57:06 AM 43.6428 -70.4508 44° Northeast 465 535 27,000  Level Boston Center
Thu 12:58:06 AM 43.7319 -70.3286 45° Northeast 452 520 27,000 -248 Level Boston Center
Thu 12:59:07 AM 43.8236 -70.2047 44° Northeast 454 522 26,500 -1,240 Descending Boston Center
Thu 01:00:07 AM 43.9150 -70.0808 44° Northeast 455 524 24,500 -2,000 Descending Boston Center
Thu 01:01:07 AM 44.0042 -69.9567 45° Northeast 454 522 22,500 -2,083 Descending Boston Center
Thu 01:02:08 AM 44.0969 -69.8297 44° Northeast 443 510 20,300 -2,450 Descending Boston Center
Thu 01:03:07 AM 44.1894 -69.7011 45° Northeast 425 489 17,600 -2,269 Descending Boston Center
Thu 01:04:07 AM 44.2564 -69.6069 45° Northeast 421 484 15,800 -1,900 Descending Boston Center
Thu 01:05:07 AM 44.3350 -69.4997 44° Northeast 397 457 13,800 -2,231 Descending Boston Center
Thu 01:06:08 AM 44.4097 -69.3903 46° Northeast 392 451 11,300 -1,488 Descending Boston Center
Thu 01:07:08 AM 44.4544 -69.2747 62° Northeast 337 388 10,800 -800 Descending Boston Center
Thu 01:08:08 AM 44.4964 -69.1758 59° Northeast 305 351 9,700 -1,250 Descending Boston Center
Thu 01:09:08 AM 44.5322 -69.0833 61° Northeast 279 321 8,300 -1,450 Descending Boston Center
Thu 01:10:08 AM 44.5653 -68.9914 63° Northeast 271 312 6,800 -1,850 Descending Boston Center
Thu 01:11:08 AM 44.5942 -68.9022 66° East 258 297 4,600 -1,600 Descending Boston Center
Thu 01:12:08 AM 44.6169 -68.8164 70° East 241 277 3,600 -992 Descending Boston Center
Thu 01:13:09 AM 44.6356 -68.7381 72° East 218 251 2,600 -545 Descending Boston Center
Thu 01:14:09 AM 44.6592 -68.6792 61° Northeast 190 219 2,500 -50 Descending Boston Center
Thu 01:15:09 AM 44.6961 -68.6933 345° North 157 181 2,500 -150 Level Boston Center
Thu 01:16:09 AM 44.7292 -68.7167 333° Northwest 138 159 2,200 -500 Descending Boston Center
Thu 01:17:09 AM 44.7533 -68.7511 315° West 131 151 1,500 -700 Descending Boston Center
Thu 01:18:09 AM 44.7772 -68.7867 313° West 128 147 800 -545 Descending Boston Center
Thu 01:19:10 AM 44.8053 -68.8300 312° West 128 147 400 -393 Descending Boston Center

Login

Don't have an account? Register now (free) for customized features, flight alerts, and more!